sensor_id;sensor_type;location;lat;lon;timestamp;P1;durP1;ratioP1;P2;durP2;ratioP2
71162;SDS011;58858;50.948;6.566;2024-03-25T00:04:54;19.02;;;5.20;;
71162;SDS011;58858;50.948;6.566;2024-03-25T00:14:55;16.20;;;3.45;;
71162;SDS011;58858;50.948;6.566;2024-03-25T00:24:56;17.13;;;4.30;;
71162;SDS011;58858;50.948;6.566;2024-03-25T00:34:58;20.70;;;3.97;;
71162;SDS011;58858;50.948;6.566;2024-03-25T00:44:59;16.00;;;4.85;;
71162;SDS011;58858;50.948;6.566;2024-03-25T00:55:00;14.70;;;4.45;;
71162;SDS011;58858;50.948;6.566;2024-03-25T01:05:01;17.50;;;3.28;;
71162;SDS011;58858;50.948;6.566;2024-03-25T01:15:03;16.80;;;3.53;;
71162;SDS011;58858;50.948;6.566;2024-03-25T01:25:06;15.57;;;4.75;;
71162;SDS011;58858;50.948;6.566;2024-03-25T01:35:07;15.25;;;4.32;;
71162;SDS011;58858;50.948;6.566;2024-03-25T01:45:09;12.82;;;4.50;;
71162;SDS011;58858;50.948;6.566;2024-03-25T01:55:12;16.08;;;3.75;;
71162;SDS011;58858;50.948;6.566;2024-03-25T02:05:18;13.90;;;3.00;;
71162;SDS011;58858;50.948;6.566;2024-03-25T02:15:19;17.85;;;5.28;;
71162;SDS011;58858;50.948;6.566;2024-03-25T02:25:21;13.07;;;3.10;;
71162;SDS011;58858;50.948;6.566;2024-03-25T02:35:22;21.48;;;6.05;;
71162;SDS011;58858;50.948;6.566;2024-03-25T02:45:24;14.25;;;3.78;;
71162;SDS011;58858;50.948;6.566;2024-03-25T02:55:25;16.77;;;3.05;;
71162;SDS011;58858;50.948;6.566;2024-03-25T03:05:26;17.10;;;4.45;;
71162;SDS011;58858;50.948;6.566;2024-03-25T03:15:27;17.17;;;4.55;;
71162;SDS011;58858;50.948;6.566;2024-03-25T03:25:28;16.08;;;3.60;;
71162;SDS011;58858;50.948;6.566;2024-03-25T03:35:34;13.73;;;4.55;;
71162;SDS011;58858;50.948;6.566;2024-03-25T03:45:35;14.47;;;3.90;;
71162;SDS011;58858;50.948;6.566;2024-03-25T03:55:36;12.60;;;2.85;;
71162;SDS011;58858;50.948;6.566;2024-03-25T04:05:37;14.07;;;4.75;;
71162;SDS011;58858;50.948;6.566;2024-03-25T04:15:39;18.58;;;5.32;;
71162;SDS011;58858;50.948;6.566;2024-03-25T04:25:41;16.73;;;4.90;;
71162;SDS011;58858;50.948;6.566;2024-03-25T04:35:42;17.23;;;4.05;;
71162;SDS011;58858;50.948;6.566;2024-03-25T04:45:43;12.23;;;3.45;;
71162;SDS011;58858;50.948;6.566;2024-03-25T04:55:44;15.80;;;4.85;;
71162;SDS011;58858;50.948;6.566;2024-03-25T05:05:45;7.68;;;3.20;;
71162;SDS011;58858;50.948;6.566;2024-03-25T05:15:50;12.23;;;4.03;;
71162;SDS011;58858;50.948;6.566;2024-03-25T05:25:51;6.93;;;3.45;;
71162;SDS011;58858;50.948;6.566;2024-03-25T05:35:53;13.30;;;4.45;;
71162;SDS011;58858;50.948;6.566;2024-03-25T05:45:54;10.23;;;4.18;;
71162;SDS011;58858;50.948;6.566;2024-03-25T05:55:57;14.15;;;4.47;;
71162;SDS011;58858;50.948;6.566;2024-03-25T06:05:59;20.73;;;5.13;;
71162;SDS011;58858;50.948;6.566;2024-03-25T06:16:02;16.23;;;5.18;;
71162;SDS011;58858;50.948;6.566;2024-03-25T06:26:04;14.07;;;5.53;;
71162;SDS011;58858;50.948;6.566;2024-03-25T06:36:05;15.60;;;4.82;;
71162;SDS011;58858;50.948;6.566;2024-03-25T06:46:06;12.75;;;6.22;;
71162;SDS011;58858;50.948;6.566;2024-03-25T06:56:07;9.70;;;3.60;;
71162;SDS011;58858;50.948;6.566;2024-03-25T07:06:09;13.05;;;4.15;;
71162;SDS011;58858;50.948;6.566;2024-03-25T07:16:10;15.75;;;4.97;;
71162;SDS011;58858;50.948;6.566;2024-03-25T07:26:11;15.40;;;6.93;;
71162;SDS011;58858;50.948;6.566;2024-03-25T07:36:12;17.10;;;6.97;;
71162;SDS011;58858;50.948;6.566;2024-03-25T07:46:13;17.35;;;8.13;;
71162;SDS011;58858;50.948;6.566;2024-03-25T07:56:15;24.42;;;10.20;;
71162;SDS011;58858;50.948;6.566;2024-03-25T08:06:16;16.33;;;8.90;;
71162;SDS011;58858;50.948;6.566;2024-03-25T08:16:17;20.35;;;8.40;;
71162;SDS011;58858;50.948;6.566;2024-03-25T08:26:18;13.65;;;8.18;;
71162;SDS011;58858;50.948;6.566;2024-03-25T08:36:19;12.98;;;6.72;;
71162;SDS011;58858;50.948;6.566;2024-03-25T08:46:20;16.17;;;7.70;;
71162;SDS011;58858;50.948;6.566;2024-03-25T08:56:21;15.38;;;6.93;;
71162;SDS011;58858;50.948;6.566;2024-03-25T09:06:22;13.07;;;4.13;;
71162;SDS011;58858;50.948;6.566;2024-03-25T09:16:23;14.23;;;4.25;;
71162;SDS011;58858;50.948;6.566;2024-03-25T09:26:25;20.90;;;4.78;;
71162;SDS011;58858;50.948;6.566;2024-03-25T09:36:26;12.88;;;5.20;;
71162;SDS011;58858;50.948;6.566;2024-03-25T09:46:27;13.75;;;4.45;;
71162;SDS011;58858;50.948;6.566;2024-03-25T09:56:28;9.93;;;3.58;;
71162;SDS011;58858;50.948;6.566;2024-03-25T10:06:31;11.57;;;3.90;;
71162;SDS011;58858;50.948;6.566;2024-03-25T10:16:32;11.63;;;4.45;;
71162;SDS011;58858;50.948;6.566;2024-03-25T10:26:33;9.48;;;3.75;;
71162;SDS011;58858;50.948;6.566;2024-03-25T10:36:39;9.65;;;3.00;;
71162;SDS011;58858;50.948;6.566;2024-03-25T10:46:40;4.72;;;1.95;;
71162;SDS011;58858;50.948;6.566;2024-03-25T10:56:41;8.50;;;2.72;;
71162;SDS011;58858;50.948;6.566;2024-03-25T11:06:42;6.13;;;2.22;;
71162;SDS011;58858;50.948;6.566;2024-03-25T11:16:50;9.40;;;2.30;;
71162;SDS011;58858;50.948;6.566;2024-03-25T11:26:52;6.30;;;2.10;;
71162;SDS011;58858;50.948;6.566;2024-03-25T11:36:53;5.22;;;1.67;;
71162;SDS011;58858;50.948;6.566;2024-03-25T11:46:57;5.03;;;1.90;;
71162;SDS011;58858;50.948;6.566;2024-03-25T11:56:58;4.22;;;1.83;;
71162;SDS011;58858;50.948;6.566;2024-03-25T12:06:59;3.10;;;1.42;;
71162;SDS011;58858;50.948;6.566;2024-03-25T12:17:00;4.88;;;2.08;;
71162;SDS011;58858;50.948;6.566;2024-03-25T12:27:04;4.25;;;1.83;;
71162;SDS011;58858;50.948;6.566;2024-03-25T12:37:14;4.40;;;1.55;;
71162;SDS011;58858;50.948;6.566;2024-03-25T12:47:16;3.53;;;1.40;;
71162;SDS011;58858;50.948;6.566;2024-03-25T12:57:17;3.75;;;1.70;;
71162;SDS011;58858;50.948;6.566;2024-03-25T13:07:19;2.35;;;1.38;;
71162;SDS011;58858;50.948;6.566;2024-03-25T13:17:20;4.03;;;1.65;;
71162;SDS011;58858;50.948;6.566;2024-03-25T13:27:21;2.70;;;1.63;;
71162;SDS011;58858;50.948;6.566;2024-03-25T13:37:22;4.60;;;1.58;;
71162;SDS011;58858;50.948;6.566;2024-03-25T13:47:24;2.90;;;1.50;;
71162;SDS011;58858;50.948;6.566;2024-03-25T13:57:25;4.13;;;1.30;;
71162;SDS011;58858;50.948;6.566;2024-03-25T14:07:26;3.47;;;1.55;;
71162;SDS011;58858;50.948;6.566;2024-03-25T14:17:27;4.38;;;1.27;;
71162;SDS011;58858;50.948;6.566;2024-03-25T14:27:29;5.03;;;1.73;;
71162;SDS011;58858;50.948;6.566;2024-03-25T14:37:30;4.22;;;1.80;;
71162;SDS011;58858;50.948;6.566;2024-03-25T14:47:31;3.42;;;1.33;;
71162;SDS011;58858;50.948;6.566;2024-03-25T14:57:32;3.58;;;1.60;;
71162;SDS011;58858;50.948;6.566;2024-03-25T15:07:33;4.63;;;1.33;;
71162;SDS011;58858;50.948;6.566;2024-03-25T15:17:34;3.90;;;1.40;;
71162;SDS011;58858;50.948;6.566;2024-03-25T15:27:35;2.65;;;1.95;;
71162;SDS011;58858;50.948;6.566;2024-03-25T15:37:37;3.90;;;2.30;;
71162;SDS011;58858;50.948;6.566;2024-03-25T15:47:38;6.80;;;2.28;;
71162;SDS011;58858;50.948;6.566;2024-03-25T15:57:39;5.15;;;1.88;;
71162;SDS011;58858;50.948;6.566;2024-03-25T16:07:40;4.18;;;1.60;;
71162;SDS011;58858;50.948;6.566;2024-03-25T16:17:42;7.93;;;2.00;;
71162;SDS011;58858;50.948;6.566;2024-03-25T16:27:43;4.05;;;1.48;;
71162;SDS011;58858;50.948;6.566;2024-03-25T16:37:44;5.78;;;2.30;;
71162;SDS011;58858;50.948;6.566;2024-03-25T16:47:46;5.00;;;1.50;;
71162;SDS011;58858;50.948;6.566;2024-03-25T16:57:47;6.55;;;1.45;;
71162;SDS011;58858;50.948;6.566;2024-03-25T17:07:48;3.25;;;1.40;;
71162;SDS011;58858;50.948;6.566;2024-03-25T17:17:50;5.07;;;1.70;;
71162;SDS011;58858;50.948;6.566;2024-03-25T17:27:52;5.28;;;1.52;;
71162;SDS011;58858;50.948;6.566;2024-03-25T17:37:53;5.88;;;1.60;;
71162;SDS011;58858;50.948;6.566;2024-03-25T17:47:54;5.55;;;1.63;;
71162;SDS011;58858;50.948;6.566;2024-03-25T17:57:55;4.60;;;1.77;;
71162;SDS011;58858;50.948;6.566;2024-03-25T18:07:56;5.30;;;1.52;;
71162;SDS011;58858;50.948;6.566;2024-03-25T18:17:57;5.40;;;1.20;;
71162;SDS011;58858;50.948;6.566;2024-03-25T18:27:59;4.97;;;1.63;;
71162;SDS011;58858;50.948;6.566;2024-03-25T18:38:00;4.60;;;1.70;;
71162;SDS011;58858;50.948;6.566;2024-03-25T18:48:01;3.30;;;1.30;;
71162;SDS011;58858;50.948;6.566;2024-03-25T18:58:02;6.25;;;1.80;;
71162;SDS011;58858;50.948;6.566;2024-03-25T19:18:09;5.20;;;1.80;;
71162;SDS011;58858;50.948;6.566;2024-03-25T19:28:10;6.00;;;1.75;;
71162;SDS011;58858;50.948;6.566;2024-03-25T19:38:11;4.78;;;2.08;;
71162;SDS011;58858;50.948;6.566;2024-03-25T19:48:12;8.23;;;2.22;;
71162;SDS011;58858;50.948;6.566;2024-03-25T19:58:13;5.63;;;2.05;;
71162;SDS011;58858;50.948;6.566;2024-03-25T20:08:14;3.80;;;1.80;;
71162;SDS011;58858;50.948;6.566;2024-03-25T20:18:15;4.32;;;1.25;;
71162;SDS011;58858;50.948;6.566;2024-03-25T20:28:16;5.57;;;1.83;;
71162;SDS011;58858;50.948;6.566;2024-03-25T20:38:17;2.80;;;1.60;;
71162;SDS011;58858;50.948;6.566;2024-03-25T20:48:19;4.90;;;2.15;;
71162;SDS011;58858;50.948;6.566;2024-03-25T20:58:20;5.03;;;2.08;;
71162;SDS011;58858;50.948;6.566;2024-03-25T21:08:22;5.55;;;1.52;;
71162;SDS011;58858;50.948;6.566;2024-03-25T21:18:23;8.10;;;3.50;;
71162;SDS011;58858;50.948;6.566;2024-03-25T21:28:24;7.47;;;3.47;;
71162;SDS011;58858;50.948;6.566;2024-03-25T21:38:25;4.55;;;1.65;;
71162;SDS011;58858;50.948;6.566;2024-03-25T21:48:26;4.35;;;1.30;;
71162;SDS011;58858;50.948;6.566;2024-03-25T21:58:27;5.57;;;1.92;;
71162;SDS011;58858;50.948;6.566;2024-03-25T22:08:29;5.63;;;2.15;;
71162;SDS011;58858;50.948;6.566;2024-03-25T22:18:30;5.85;;;1.35;;
71162;SDS011;58858;50.948;6.566;2024-03-25T22:28:31;4.47;;;1.20;;
71162;SDS011;58858;50.948;6.566;2024-03-25T22:38:32;5.75;;;2.20;;
71162;SDS011;58858;50.948;6.566;2024-03-25T22:48:33;7.57;;;2.28;;
71162;SDS011;58858;50.948;6.566;2024-03-25T22:58:35;6.45;;;1.88;;
71162;SDS011;58858;50.948;6.566;2024-03-25T23:08:37;8.05;;;2.10;;
71162;SDS011;58858;50.948;6.566;2024-03-25T23:18:38;7.72;;;2.47;;
71162;SDS011;58858;50.948;6.566;2024-03-25T23:28:39;9.05;;;2.53;;
71162;SDS011;58858;50.948;6.566;2024-03-25T23:38:41;3.75;;;2.13;;
71162;SDS011;58858;50.948;6.566;2024-03-25T23:48:42;10.23;;;2.63;;
71162;SDS011;58858;50.948;6.566;2024-03-25T23:58:43;5.97;;;2.13;;
